sensor_id;sensor_type;location;lat;lon;timestamp;P1;P2;P0
47934;PMS5003;33704;43.592;-79.628;2023-11-21T00:00:07;80.0;76.0;
47934;PMS5003;33704;43.592;-79.628;2023-11-21T00:00:40;78.0;75.0;
47934;PMS5003;33704;43.592;-79.628;2023-11-21T00:01:12;80.0;78.0;
47934;PMS5003;33704;43.592;-79.628;2023-11-21T00:01:44;81.0;79.0;
47934;PMS5003;33704;43.592;-79.628;2023-11-21T00:02:16;75.0;75.0;
47934;PMS5003;33704;43.592;-79.628;2023-11-21T00:02:48;75.0;70.0;
47934;PMS5003;33704;43.592;-79.628;2023-11-21T00:03:20;84.0;80.0;
47934;PMS5003;33704;43.592;-79.628;2023-11-21T00:03:53;78.0;73.0;
47934;PMS5003;33704;43.592;-79.628;2023-11-21T00:04:25;85.0;81.0;
47934;PMS5003;33704;43.592;-79.628;2023-11-21T00:04:57;75.0;72.0;
47934;PMS5003;33704;43.592;-79.628;2023-11-21T00:05:29;80.0;80.0;
47934;PMS5003;33704;43.592;-79.628;2023-11-21T00:06:02;79.0;77.0;
47934;PMS5003;33704;43.592;-79.628;2023-11-21T00:06:34;81.0;77.0;
47934;PMS5003;33704;43.592;-79.628;2023-11-21T00:07:05;79.0;74.0;
47934;PMS5003;33704;43.592;-79.628;2023-11-21T00:07:37;71.0;70.0;
47934;PMS5003;33704;43.592;-79.628;2023-11-21T00:08:09;77.0;74.0;
47934;PMS5003;33704;43.592;-79.628;2023-11-21T00:08:42;78.0;78.0;
47934;PMS5003;33704;43.592;-79.628;2023-11-21T00:09:14;80.0;76.0;
47934;PMS5003;33704;43.592;-79.628;2023-11-21T00:09:46;74.0;71.0;
47934;PMS5003;33704;43.592;-79.628;2023-11-21T00:10:18;70.0;68.0;
47934;PMS5003;33704;43.592;-79.628;2023-11-21T00:10:50;71.0;69.0;
47934;PMS5003;33704;43.592;-79.628;2023-11-21T00:11:23;75.0;72.0;
47934;PMS5003;33704;43.592;-79.628;2023-11-21T00:11:54;72.0;69.0;
47934;PMS5003;33704;43.592;-79.628;2023-11-21T00:12:27;78.0;75.0;
47934;PMS5003;33704;43.592;-79.628;2023-11-21T00:12:58;74.0;70.0;
47934;PMS5003;33704;43.592;-79.628;2023-11-21T00:13:32;74.0;72.0;
47934;PMS5003;33704;43.592;-79.628;2023-11-21T00:14:04;69.0;64.0;
47934;PMS5003;33704;43.592;-79.628;2023-11-21T00:14:36;73.0;65.0;
47934;PMS5003;33704;43.592;-79.628;2023-11-21T00:15:09;67.0;65.0;
47934;PMS5003;33704;43.592;-79.628;2023-11-21T00:15:41;70.0;68.0;
47934;PMS5003;33704;43.592;-79.628;2023-11-21T00:16:13;73.0;71.0;
47934;PMS5003;33704;43.592;-79.628;2023-11-21T00:16:45;66.0;64.0;
47934;PMS5003;33704;43.592;-79.628;2023-11-21T00:17:17;69.0;67.0;
47934;PMS5003;33704;43.592;-79.628;2023-11-21T00:17:49;73.0;72.0;
47934;PMS5003;33704;43.592;-79.628;2023-11-21T00:18:21;70.0;69.0;
47934;PMS5003;33704;43.592;-79.628;2023-11-21T00:18:53;65.0;62.0;
47934;PMS5003;33704;43.592;-79.628;2023-11-21T00:19:25;65.0;64.0;
47934;PMS5003;33704;43.592;-79.628;2023-11-21T00:19:57;71.0;70.0;
47934;PMS5003;33704;43.592;-79.628;2023-11-21T00:20:31;69.0;67.0;
47934;PMS5003;33704;43.592;-79.628;2023-11-21T00:21:03;68.0;64.0;
47934;PMS5003;33704;43.592;-79.628;2023-11-21T00:21:35;63.0;62.0;
47934;PMS5003;33704;43.592;-79.628;2023-11-21T00:22:07;72.0;68.0;
47934;PMS5003;33704;43.592;-79.628;2023-11-21T00:22:39;66.0;63.0;
47934;PMS5003;33704;43.592;-79.628;2023-11-21T00:23:12;62.0;62.0;
47934;PMS5003;33704;43.592;-79.628;2023-11-21T00:23:44;60.0;58.0;
47934;PMS5003;33704;43.592;-79.628;2023-11-21T00:24:16;56.0;56.0;
47934;PMS5003;33704;43.592;-79.628;2023-11-21T00:24:48;62.0;62.0;
47934;PMS5003;33704;43.592;-79.628;2023-11-21T00:25:20;62.0;60.0;
47934;PMS5003;33704;43.592;-79.628;2023-11-21T00:25:52;62.0;62.0;
47934;PMS5003;33704;43.592;-79.628;2023-11-21T00:26:24;58.0;57.0;
47934;PMS5003;33704;43.592;-79.628;2023-11-21T00:26:56;58.0;57.0;
47934;PMS5003;33704;43.592;-79.628;2023-11-21T00:27:28;57.0;54.0;
47934;PMS5003;33704;43.592;-79.628;2023-11-21T00:28:01;58.0;58.0;
47934;PMS5003;33704;43.592;-79.628;2023-11-21T00:28:33;57.0;57.0;
47934;PMS5003;33704;43.592;-79.628;2023-11-21T00:29:04;58.0;56.0;
47934;PMS5003;33704;43.592;-79.628;2023-11-21T00:29:37;58.0;58.0;
47934;PMS5003;33704;43.592;-79.628;2023-11-21T00:30:14;61.0;61.0;
47934;PMS5003;33704;43.592;-79.628;2023-11-21T00:30:50;64.0;60.0;
47934;PMS5003;33704;43.592;-79.628;2023-11-21T00:31:23;60.0;58.0;
47934;PMS5003;33704;43.592;-79.628;2023-11-21T00:31:54;60.0;56.0;
47934;PMS5003;33704;43.592;-79.628;2023-11-21T00:32:26;54.0;52.0;
47934;PMS5003;33704;43.592;-79.628;2023-11-21T00:32:59;51.0;50.0;
47934;PMS5003;33704;43.592;-79.628;2023-11-21T00:33:32;57.0;56.0;
47934;PMS5003;33704;43.592;-79.628;2023-11-21T00:34:05;59.0;59.0;
47934;PMS5003;33704;43.592;-79.628;2023-11-21T00:34:37;55.0;53.0;
47934;PMS5003;33704;43.592;-79.628;2023-11-21T00:35:09;58.0;54.0;
47934;PMS5003;33704;43.592;-79.628;2023-11-21T00:35:42;55.0;55.0;
47934;PMS5003;33704;43.592;-79.628;2023-11-21T00:36:13;58.0;56.0;
47934;PMS5003;33704;43.592;-79.628;2023-11-21T00:36:45;52.0;51.0;
47934;PMS5003;33704;43.592;-79.628;2023-11-21T00:37:18;52.0;52.0;
47934;PMS5003;33704;43.592;-79.628;2023-11-21T00:37:50;52.0;51.0;
47934;PMS5003;33704;43.592;-79.628;2023-11-21T00:38:23;49.0;49.0;
47934;PMS5003;33704;43.592;-79.628;2023-11-21T00:38:55;52.0;50.0;
47934;PMS5003;33704;43.592;-79.628;2023-11-21T00:39:27;63.0;58.0;
47934;PMS5003;33704;43.592;-79.628;2023-11-21T00:40:01;54.0;50.0;
47934;PMS5003;33704;43.592;-79.628;2023-11-21T00:40:34;53.0;53.0;
47934;PMS5003;33704;43.592;-79.628;2023-11-21T00:41:06;47.0;46.0;
47934;PMS5003;33704;43.592;-79.628;2023-11-21T00:41:37;51.0;50.0;
47934;PMS5003;33704;43.592;-79.628;2023-11-21T00:42:10;52.0;52.0;
47934;PMS5003;33704;43.592;-79.628;2023-11-21T00:42:42;53.0;51.0;
47934;PMS5003;33704;43.592;-79.628;2023-11-21T00:43:14;54.0;50.0;
47934;PMS5003;33704;43.592;-79.628;2023-11-21T00:43:46;54.0;53.0;
47934;PMS5003;33704;43.592;-79.628;2023-11-21T00:44:18;52.0;52.0;
47934;PMS5003;33704;43.592;-79.628;2023-11-21T00:44:51;61.0;57.0;
47934;PMS5003;33704;43.592;-79.628;2023-11-21T00:45:23;47.0;47.0;
47934;PMS5003;33704;43.592;-79.628;2023-11-21T00:45:55;51.0;49.0;
47934;PMS5003;33704;43.592;-79.628;2023-11-21T00:46:27;46.0;44.0;
47934;PMS5003;33704;43.592;-79.628;2023-11-21T00:46:59;51.0;48.0;
47934;PMS5003;33704;43.592;-79.628;2023-11-21T00:47:32;48.0;48.0;
47934;PMS5003;33704;43.592;-79.628;2023-11-21T00:48:04;48.0;48.0;
47934;PMS5003;33704;43.592;-79.628;2023-11-21T00:48:36;47.0;45.0;
47934;PMS5003;33704;43.592;-79.628;2023-11-21T00:49:07;49.0;49.0;
47934;PMS5003;33704;43.592;-79.628;2023-11-21T00:49:40;45.0;45.0;
47934;PMS5003;33704;43.592;-79.628;2023-11-21T00:50:12;46.0;46.0;
47934;PMS5003;33704;43.592;-79.628;2023-11-21T00:50:44;48.0;46.0;
47934;PMS5003;33704;43.592;-79.628;2023-11-21T00:51:16;48.0;47.0;
47934;PMS5003;33704;43.592;-79.628;2023-11-21T00:51:48;42.0;41.0;
47934;PMS5003;33704;43.592;-79.628;2023-11-21T00:52:20;44.0;44.0;
47934;PMS5003;33704;43.592;-79.628;2023-11-21T00:52:52;48.0;46.0;
47934;PMS5003;33704;43.592;-79.628;2023-11-21T00:53:24;40.0;40.0;
47934;PMS5003;33704;43.592;-79.628;2023-11-21T00:53:56;45.0;43.0;
47934;PMS5003;33704;43.592;-79.628;2023-11-21T00:54:29;42.0;42.0;
47934;PMS5003;33704;43.592;-79.628;2023-11-21T00:55:02;43.0;42.0;
47934;PMS5003;33704;43.592;-79.628;2023-11-21T00:55:34;44.0;42.0;
47934;PMS5003;33704;43.592;-79.628;2023-11-21T00:56:06;46.0;42.0;
47934;PMS5003;33704;43.592;-79.628;2023-11-21T00:57:08;43.0;42.0;
47934;PMS5003;33704;43.592;-79.628;2023-11-21T00:57:40;40.0;40.0;
47934;PMS5003;33704;43.592;-79.628;2023-11-21T00:58:12;46.0;46.0;
47934;PMS5003;33704;43.592;-79.628;2023-11-21T00:58:44;43.0;43.0;
47934;PMS5003;33704;43.592;-79.628;2023-11-21T00:59:15;42.0;41.0;
47934;PMS5003;33704;43.592;-79.628;2023-11-21T00:59:47;37.0;37.0;
47934;PMS5003;33704;43.592;-79.628;2023-11-21T01:00:19;45.0;44.0;
47934;PMS5003;33704;43.592;-79.628;2023-11-21T01:00:51;46.0;45.0;
47934;PMS5003;33704;43.592;-79.628;2023-11-21T01:01:23;46.0;44.0;
47934;PMS5003;33704;43.592;-79.628;2023-11-21T01:01:55;38.0;37.0;
47934;PMS5003;33704;43.592;-79.628;2023-11-21T01:02:27;42.0;41.0;
47934;PMS5003;33704;43.592;-79.628;2023-11-21T01:02:59;37.0;36.0;
47934;PMS5003;33704;43.592;-79.628;2023-11-21T01:03:31;42.0;41.0;
47934;PMS5003;33704;43.592;-79.628;2023-11-21T01:04:03;39.0;39.0;
47934;PMS5003;33704;43.592;-79.628;2023-11-21T01:04:36;37.0;36.0;
47934;PMS5003;33704;43.592;-79.628;2023-11-21T01:05:08;40.0;40.0;
47934;PMS5003;33704;43.592;-79.628;2023-11-21T01:05:40;42.0;40.0;
47934;PMS5003;33704;43.592;-79.628;2023-11-21T01:06:12;37.0;36.0;
47934;PMS5003;33704;43.592;-79.628;2023-11-21T01:06:44;38.0;37.0;
47934;PMS5003;33704;43.592;-79.628;2023-11-21T01:07:16;35.0;35.0;
47934;PMS5003;33704;43.592;-79.628;2023-11-21T01:07:47;35.0;34.0;
47934;PMS5003;33704;43.592;-79.628;2023-11-21T01:08:20;36.0;36.0;
47934;PMS5003;33704;43.592;-79.628;2023-11-21T01:08:52;39.0;36.0;
47934;PMS5003;33704;43.592;-79.628;2023-11-21T01:09:24;34.0;33.0;
47934;PMS5003;33704;43.592;-79.628;2023-11-21T01:09:56;35.0;35.0;
47934;PMS5003;33704;43.592;-79.628;2023-11-21T01:10:28;37.0;37.0;
47934;PMS5003;33704;43.592;-79.628;2023-11-21T01:11:01;42.0;40.0;
47934;PMS5003;33704;43.592;-79.628;2023-11-21T01:11:33;35.0;33.0;
47934;PMS5003;33704;43.592;-79.628;2023-11-21T01:12:06;37.0;35.0;
47934;PMS5003;33704;43.592;-79.628;2023-11-21T01:12:38;33.0;31.0;
47934;PMS5003;33704;43.592;-79.628;2023-11-21T01:13:10;30.0;30.0;
47934;PMS5003;33704;43.592;-79.628;2023-11-21T01:13:42;37.0;36.0;
47934;PMS5003;33704;43.592;-79.628;2023-11-21T01:14:14;33.0;32.0;
47934;PMS5003;33704;43.592;-79.628;2023-11-21T01:14:46;34.0;33.0;
47934;PMS5003;33704;43.592;-79.628;2023-11-21T01:15:18;40.0;38.0;
47934;PMS5003;33704;43.592;-79.628;2023-11-21T01:15:50;33.0;33.0;
47934;PMS5003;33704;43.592;-79.628;2023-11-21T01:16:22;35.0;35.0;
47934;PMS5003;33704;43.592;-79.628;2023-11-21T01:16:54;33.0;33.0;
47934;PMS5003;33704;43.592;-79.628;2023-11-21T01:17:26;38.0;36.0;
47934;PMS5003;33704;43.592;-79.628;2023-11-21T01:17:58;30.0;30.0;
47934;PMS5003;33704;43.592;-79.628;2023-11-21T01:18:30;28.0;28.0;
47934;PMS5003;33704;43.592;-79.628;2023-11-21T01:19:03;35.0;34.0;
47934;PMS5003;33704;43.592;-79.628;2023-11-21T01:19:34;31.0;29.0;
47934;PMS5003;33704;43.592;-79.628;2023-11-21T01:20:06;31.0;31.0;
47934;PMS5003;33704;43.592;-79.628;2023-11-21T01:20:39;38.0;36.0;
47934;PMS5003;33704;43.592;-79.628;2023-11-21T01:21:11;32.0;29.0;
47934;PMS5003;33704;43.592;-79.628;2023-11-21T01:21:43;34.0;34.0;
47934;PMS5003;33704;43.592;-79.628;2023-11-21T01:22:14;29.0;29.0;
47934;PMS5003;33704;43.592;-79.628;2023-11-21T01:22:46;29.0;29.0;
47934;PMS5003;33704;43.592;-79.628;2023-11-21T01:23:18;32.0;29.0;
47934;PMS5003;33704;43.592;-79.628;2023-11-21T01:23:50;30.0;30.0;
47934;PMS5003;33704;43.592;-79.628;2023-11-21T01:24:23;28.0;26.0;
47934;PMS5003;33704;43.592;-79.628;2023-11-21T01:24:54;29.0;29.0;
47934;PMS5003;33704;43.592;-79.628;2023-11-21T01:25:26;34.0;34.0;
47934;PMS5003;33704;43.592;-79.628;2023-11-21T01:25:58;26.0;26.0;
47934;PMS5003;33704;43.592;-79.628;2023-11-21T01:26:30;30.0;30.0;
47934;PMS5003;33704;43.592;-79.628;2023-11-21T01:27:02;36.0;35.0;
47934;PMS5003;33704;43.592;-79.628;2023-11-21T01:27:34;32.0;31.0;
47934;PMS5003;33704;43.592;-79.628;2023-11-21T01:28:06;31.0;30.0;
47934;PMS5003;33704;43.592;-79.628;2023-11-21T01:28:38;30.0;29.0;
47934;PMS5003;33704;43.592;-79.628;2023-11-21T01:29:11;26.0;26.0;
47934;PMS5003;33704;43.592;-79.628;2023-11-21T01:29:44;29.0;29.0;
47934;PMS5003;33704;43.592;-79.628;2023-11-21T01:30:16;28.0;28.0;
47934;PMS5003;33704;43.592;-79.628;2023-11-21T01:30:48;28.0;28.0;
47934;PMS5003;33704;43.592;-79.628;2023-11-21T01:31:21;27.0;27.0;
47934;PMS5003;33704;43.592;-79.628;2023-11-21T01:31:53;30.0;27.0;
47934;PMS5003;33704;43.592;-79.628;2023-11-21T01:32:25;31.0;31.0;
47934;PMS5003;33704;43.592;-79.628;2023-11-21T01:32:56;29.0;27.0;
47934;PMS5003;33704;43.592;-79.628;2023-11-21T01:33:28;31.0;30.0;
47934;PMS5003;33704;43.592;-79.628;2023-11-21T01:34:00;28.0;27.0;
47934;PMS5003;33704;43.592;-79.628;2023-11-21T01:34:33;30.0;30.0;
47934;PMS5003;33704;43.592;-79.628;2023-11-21T01:35:04;27.0;27.0;
47934;PMS5003;33704;43.592;-79.628;2023-11-21T01:35:36;28.0;27.0;
47934;PMS5003;33704;43.592;-79.628;2023-11-21T01:36:09;29.0;29.0;
47934;PMS5003;33704;43.592;-79.628;2023-11-21T01:36:42;26.0;26.0;
47934;PMS5003;33704;43.592;-79.628;2023-11-21T01:37:16;28.0;28.0;
47934;PMS5003;33704;43.592;-79.628;2023-11-21T01:37:47;25.0;25.0;
47934;PMS5003;33704;43.592;-79.628;2023-11-21T01:38:20;25.0;24.0;
47934;PMS5003;33704;43.592;-79.628;2023-11-21T01:38:53;26.0;25.0;
47934;PMS5003;33704;43.592;-79.628;2023-11-21T01:39:25;28.0;26.0;
47934;PMS5003;33704;43.592;-79.628;2023-11-21T01:39:56;27.0;25.0;
47934;PMS5003;33704;43.592;-79.628;2023-11-21T01:40:29;23.0;23.0;
47934;PMS5003;33704;43.592;-79.628;2023-11-21T01:41:01;23.0;23.0;
47934;PMS5003;33704;43.592;-79.628;2023-11-21T01:41:33;26.0;23.0;
47934;PMS5003;33704;43.592;-79.628;2023-11-21T01:42:05;26.0;24.0;
47934;PMS5003;33704;43.592;-79.628;2023-11-21T01:42:37;23.0;23.0;
47934;PMS5003;33704;43.592;-79.628;2023-11-21T01:43:10;20.0;19.0;
47934;PMS5003;33704;43.592;-79.628;2023-11-21T01:43:42;25.0;25.0;
47934;PMS5003;33704;43.592;-79.628;2023-11-21T01:44:14;21.0;20.0;
47934;PMS5003;33704;43.592;-79.628;2023-11-21T01:44:45;26.0;25.0;
47934;PMS5003;33704;43.592;-79.628;2023-11-21T01:45:17;23.0;23.0;
47934;PMS5003;33704;43.592;-79.628;2023-11-21T01:45:49;21.0;21.0;
47934;PMS5003;33704;43.592;-79.628;2023-11-21T01:46:21;25.0;24.0;
47934;PMS5003;33704;43.592;-79.628;2023-11-21T01:46:54;23.0;23.0;
47934;PMS5003;33704;43.592;-79.628;2023-11-21T01:47:26;27.0;25.0;
47934;PMS5003;33704;43.592;-79.628;2023-11-21T01:47:58;20.0;20.0;
47934;PMS5003;33704;43.592;-79.628;2023-11-21T01:48:32;21.0;21.0;
47934;PMS5003;33704;43.592;-79.628;2023-11-21T01:49:05;26.0;25.0;
47934;PMS5003;33704;43.592;-79.628;2023-11-21T01:49:37;29.0;28.0;
47934;PMS5003;33704;43.592;-79.628;2023-11-21T01:50:09;22.0;21.0;
47934;PMS5003;33704;43.592;-79.628;2023-11-21T01:50:46;19.0;19.0;
47934;PMS5003;33704;43.592;-79.628;2023-11-21T01:51:18;24.0;22.0;
47934;PMS5003;33704;43.592;-79.628;2023-11-21T01:51:51;19.0;18.0;
47934;PMS5003;33704;43.592;-79.628;2023-11-21T01:52:23;18.0;18.0;
47934;PMS5003;33704;43.592;-79.628;2023-11-21T01:52:55;18.0;17.0;
47934;PMS5003;33704;43.592;-79.628;2023-11-21T01:53:27;21.0;21.0;
47934;PMS5003;33704;43.592;-79.628;2023-11-21T01:54:00;23.0;22.0;
47934;PMS5003;33704;43.592;-79.628;2023-11-21T01:54:33;19.0;19.0;
47934;PMS5003;33704;43.592;-79.628;2023-11-21T01:55:05;16.0;16.0;
47934;PMS5003;33704;43.592;-79.628;2023-11-21T01:55:38;23.0;21.0;
47934;PMS5003;33704;43.592;-79.628;2023-11-21T01:56:12;24.0;22.0;
47934;PMS5003;33704;43.592;-79.628;2023-11-21T01:56:45;21.0;21.0;
47934;PMS5003;33704;43.592;-79.628;2023-11-21T01:57:19;21.0;20.0;
47934;PMS5003;33704;43.592;-79.628;2023-11-21T01:57:52;22.0;22.0;
47934;PMS5003;33704;43.592;-79.628;2023-11-21T01:58:24;21.0;21.0;
47934;PMS5003;33704;43.592;-79.628;2023-11-21T01:58:56;23.0;23.0;
47934;PMS5003;33704;43.592;-79.628;2023-11-21T01:59:29;20.0;19.0;
47934;PMS5003;33704;43.592;-79.628;2023-11-21T02:00:06;19.0;19.0;
47934;PMS5003;33704;43.592;-79.628;2023-11-21T02:00:40;22.0;21.0;
47934;PMS5003;33704;43.592;-79.628;2023-11-21T02:01:12;20.0;20.0;
47934;PMS5003;33704;43.592;-79.628;2023-11-21T02:01:44;21.0;21.0;
47934;PMS5003;33704;43.592;-79.628;2023-11-21T02:02:15;24.0;23.0;
47934;PMS5003;33704;43.592;-79.628;2023-11-21T02:02:48;20.0;19.0;
47934;PMS5003;33704;43.592;-79.628;2023-11-21T02:03:20;21.0;20.0;
47934;PMS5003;33704;43.592;-79.628;2023-11-21T02:03:52;19.0;19.0;
47934;PMS5003;33704;43.592;-79.628;2023-11-21T02:04:24;21.0;20.0;
47934;PMS5003;33704;43.592;-79.628;2023-11-21T02:04:56;19.0;19.0;
47934;PMS5003;33704;43.592;-79.628;2023-11-21T02:05:28;21.0;21.0;
47934;PMS5003;33704;43.592;-79.628;2023-11-21T02:06:01;21.0;21.0;
47934;PMS5003;33704;43.592;-79.628;2023-11-21T02:06:33;20.0;20.0;
47934;PMS5003;33704;43.592;-79.628;2023-11-21T02:07:05;19.0;19.0;
47934;PMS5003;33704;43.592;-79.628;2023-11-21T02:07:36;20.0;20.0;
47934;PMS5003;33704;43.592;-79.628;2023-11-21T02:08:08;19.0;19.0;
47934;PMS5003;33704;43.592;-79.628;2023-11-21T02:08:41;19.0;19.0;
47934;PMS5003;33704;43.592;-79.628;2023-11-21T02:09:13;21.0;20.0;
47934;PMS5003;33704;43.592;-79.628;2023-11-21T02:09:45;18.0;18.0;
47934;PMS5003;33704;43.592;-79.628;2023-11-21T02:10:17;18.0;17.0;
47934;PMS5003;33704;43.592;-79.628;2023-11-21T02:10:50;17.0;17.0;
47934;PMS5003;33704;43.592;-79.628;2023-11-21T02:11:22;17.0;17.0;
47934;PMS5003;33704;43.592;-79.628;2023-11-21T02:11:54;17.0;17.0;
47934;PMS5003;33704;43.592;-79.628;2023-11-21T02:12:26;20.0;18.0;
47934;PMS5003;33704;43.592;-79.628;2023-11-21T02:12:57;17.0;16.0;
47934;PMS5003;33704;43.592;-79.628;2023-11-21T02:13:30;19.0;19.0;
47934;PMS5003;33704;43.592;-79.628;2023-11-21T02:14:02;18.0;18.0;
47934;PMS5003;33704;43.592;-79.628;2023-11-21T02:14:34;21.0;19.0;
47934;PMS5003;33704;43.592;-79.628;2023-11-21T02:15:06;23.0;22.0;
47934;PMS5003;33704;43.592;-79.628;2023-11-21T02:15:39;16.0;16.0;
47934;PMS5003;33704;43.592;-79.628;2023-11-21T02:16:11;18.0;17.0;
47934;PMS5003;33704;43.592;-79.628;2023-11-21T02:16:43;20.0;19.0;
47934;PMS5003;33704;43.592;-79.628;2023-11-21T02:17:14;19.0;18.0;
47934;PMS5003;33704;43.592;-79.628;2023-11-21T02:17:46;19.0;19.0;
47934;PMS5003;33704;43.592;-79.628;2023-11-21T02:18:18;19.0;19.0;
47934;PMS5003;33704;43.592;-79.628;2023-11-21T02:18:51;16.0;16.0;
47934;PMS5003;33704;43.592;-79.628;2023-11-21T02:19:23;17.0;17.0;
47934;PMS5003;33704;43.592;-79.628;2023-11-21T02:19:55;16.0;15.0;
47934;PMS5003;33704;43.592;-79.628;2023-11-21T02:20:27;17.0;17.0;
47934;PMS5003;33704;43.592;-79.628;2023-11-21T02:20:58;17.0;16.0;
47934;PMS5003;33704;43.592;-79.628;2023-11-21T02:21:31;17.0;16.0;
47934;PMS5003;33704;43.592;-79.628;2023-11-21T02:22:05;16.0;16.0;
47934;PMS5003;33704;43.592;-79.628;2023-11-21T02:22:38;17.0;16.0;
47934;PMS5003;33704;43.592;-79.628;2023-11-21T02:23:12;16.0;16.0;
47934;PMS5003;33704;43.592;-79.628;2023-11-21T02:23:44;14.0;13.0;
47934;PMS5003;33704;43.592;-79.628;2023-11-21T02:24:16;16.0;16.0;
47934;PMS5003;33704;43.592;-79.628;2023-11-21T02:24:49;18.0;18.0;
47934;PMS5003;33704;43.592;-79.628;2023-11-21T02:25:21;15.0;15.0;
47934;PMS5003;33704;43.592;-79.628;2023-11-21T02:25:53;16.0;16.0;
47934;PMS5003;33704;43.592;-79.628;2023-11-21T02:26:24;18.0;18.0;
47934;PMS5003;33704;43.592;-79.628;2023-11-21T02:26:56;14.0;14.0;
47934;PMS5003;33704;43.592;-79.628;2023-11-21T02:27:28;16.0;16.0;
47934;PMS5003;33704;43.592;-79.628;2023-11-21T02:28:03;17.0;15.0;
47934;PMS5003;33704;43.592;-79.628;2023-11-21T02:28:35;12.0;12.0;
47934;PMS5003;33704;43.592;-79.628;2023-11-21T02:29:07;13.0;13.0;
47934;PMS5003;33704;43.592;-79.628;2023-11-21T02:29:38;20.0;19.0;
47934;PMS5003;33704;43.592;-79.628;2023-11-21T02:30:16;18.0;18.0;
47934;PMS5003;33704;43.592;-79.628;2023-11-21T02:30:48;17.0;16.0;
47934;PMS5003;33704;43.592;-79.628;2023-11-21T02:31:20;15.0;15.0;
47934;PMS5003;33704;43.592;-79.628;2023-11-21T02:31:52;13.0;11.0;
47934;PMS5003;33704;43.592;-79.628;2023-11-21T02:32:24;14.0;14.0;
47934;PMS5003;33704;43.592;-79.628;2023-11-21T02:32:56;17.0;16.0;
47934;PMS5003;33704;43.592;-79.628;2023-11-21T02:33:28;16.0;16.0;
47934;PMS5003;33704;43.592;-79.628;2023-11-21T02:34:00;15.0;15.0;
47934;PMS5003;33704;43.592;-79.628;2023-11-21T02:34:32;14.0;13.0;
47934;PMS5003;33704;43.592;-79.628;2023-11-21T02:35:04;14.0;14.0;
47934;PMS5003;33704;43.592;-79.628;2023-11-21T02:35:36;14.0;13.0;
47934;PMS5003;33704;43.592;-79.628;2023-11-21T02:36:08;15.0;14.0;
47934;PMS5003;33704;43.592;-79.628;2023-11-21T02:36:41;14.0;14.0;
47934;PMS5003;33704;43.592;-79.628;2023-11-21T02:37:14;15.0;15.0;
47934;PMS5003;33704;43.592;-79.628;2023-11-21T02:37:45;14.0;14.0;
47934;PMS5003;33704;43.592;-79.628;2023-11-21T02:38:17;12.0;12.0;
47934;PMS5003;33704;43.592;-79.628;2023-11-21T02:38:49;17.0;17.0;
47934;PMS5003;33704;43.592;-79.628;2023-11-21T02:39:22;14.0;14.0;
47934;PMS5003;33704;43.592;-79.628;2023-11-21T02:39:53;13.0;13.0;
47934;PMS5003;33704;43.592;-79.628;2023-11-21T02:40:25;12.0;11.0;
47934;PMS5003;33704;43.592;-79.628;2023-11-21T02:40:57;13.0;13.0;
47934;PMS5003;33704;43.592;-79.628;2023-11-21T02:41:29;15.0;13.0;
47934;PMS5003;33704;43.592;-79.628;2023-11-21T02:42:01;16.0;16.0;
47934;PMS5003;33704;43.592;-79.628;2023-11-21T02:42:33;13.0;12.0;
47934;PMS5003;33704;43.592;-79.628;2023-11-21T02:43:05;15.0;13.0;
47934;PMS5003;33704;43.592;-79.628;2023-11-21T02:43:37;13.0;13.0;
47934;PMS5003;33704;43.592;-79.628;2023-11-21T02:44:09;13.0;13.0;
47934;PMS5003;33704;43.592;-79.628;2023-11-21T02:44:41;13.0;13.0;
47934;PMS5003;33704;43.592;-79.628;2023-11-21T02:45:14;16.0;14.0;
47934;PMS5003;33704;43.592;-79.628;2023-11-21T02:45:46;15.0;14.0;
47934;PMS5003;33704;43.592;-79.628;2023-11-21T02:46:18;14.0;14.0;
47934;PMS5003;33704;43.592;-79.628;2023-11-21T02:46:50;12.0;12.0;
47934;PMS5003;33704;43.592;-79.628;2023-11-21T02:47:22;14.0;14.0;
47934;PMS5003;33704;43.592;-79.628;2023-11-21T02:47:54;12.0;12.0;
47934;PMS5003;33704;43.592;-79.628;2023-11-21T02:48:25;14.0;14.0;
47934;PMS5003;33704;43.592;-79.628;2023-11-21T02:48:57;13.0;12.0;
47934;PMS5003;33704;43.592;-79.628;2023-11-21T02:49:29;12.0;11.0;
47934;PMS5003;33704;43.592;-79.628;2023-11-21T02:50:02;12.0;12.0;
47934;PMS5003;33704;43.592;-79.628;2023-11-21T02:50:35;13.0;13.0;
47934;PMS5003;33704;43.592;-79.628;2023-11-21T02:51:07;13.0;13.0;
47934;PMS5003;33704;43.592;-79.628;2023-11-21T02:51:39;12.0;12.0;
47934;PMS5003;33704;43.592;-79.628;2023-11-21T02:52:11;12.0;12.0;
47934;PMS5003;33704;43.592;-79.628;2023-11-21T02:52:42;14.0;14.0;
47934;PMS5003;33704;43.592;-79.628;2023-11-21T02:53:14;16.0;14.0;
47934;PMS5003;33704;43.592;-79.628;2023-11-21T02:53:46;11.0;11.0;
47934;PMS5003;33704;43.592;-79.628;2023-11-21T02:54:18;12.0;12.0;
47934;PMS5003;33704;43.592;-79.628;2023-11-21T02:54:51;13.0;13.0;
47934;PMS5003;33704;43.592;-79.628;2023-11-21T02:55:23;12.0;12.0;
47934;PMS5003;33704;43.592;-79.628;2023-11-21T02:55:55;14.0;12.0;
47934;PMS5003;33704;43.592;-79.628;2023-11-21T02:56:27;15.0;15.0;
47934;PMS5003;33704;43.592;-79.628;2023-11-21T02:56:59;12.0;10.0;
47934;PMS5003;33704;43.592;-79.628;2023-11-21T02:57:36;14.0;13.0;
47934;PMS5003;33704;43.592;-79.628;2023-11-21T02:58:08;9.0;9.0;
47934;PMS5003;33704;43.592;-79.628;2023-11-21T02:58:41;11.0;10.0;
47934;PMS5003;33704;43.592;-79.628;2023-11-21T02:59:14;9.0;9.0;
47934;PMS5003;33704;43.592;-79.628;2023-11-21T02:59:45;14.0;14.0;
47934;PMS5003;33704;43.592;-79.628;2023-11-21T03:00:18;14.0;14.0;
47934;PMS5003;33704;43.592;-79.628;2023-11-21T03:00:50;12.0;12.0;
47934;PMS5003;33704;43.592;-79.628;2023-11-21T03:01:22;11.0;11.0;
47934;PMS5003;33704;43.592;-79.628;2023-11-21T03:01:54;11.0;10.0;
47934;PMS5003;33704;43.592;-79.628;2023-11-21T03:02:25;10.0;10.0;
47934;PMS5003;33704;43.592;-79.628;2023-11-21T03:02:57;10.0;9.0;
47934;PMS5003;33704;43.592;-79.628;2023-11-21T03:03:29;11.0;11.0;
47934;PMS5003;33704;43.592;-79.628;2023-11-21T03:04:02;10.0;10.0;
47934;PMS5003;33704;43.592;-79.628;2023-11-21T03:04:34;10.0;10.0;
47934;PMS5003;33704;43.592;-79.628;2023-11-21T03:05:06;11.0;11.0;
47934;PMS5003;33704;43.592;-79.628;2023-11-21T03:05:38;11.0;11.0;
47934;PMS5003;33704;43.592;-79.628;2023-11-21T03:06:10;8.0;8.0;
47934;PMS5003;33704;43.592;-79.628;2023-11-21T03:06:47;10.0;10.0;
47934;PMS5003;33704;43.592;-79.628;2023-11-21T03:07:19;12.0;11.0;
47934;PMS5003;33704;43.592;-79.628;2023-11-21T03:07:51;11.0;9.0;
47934;PMS5003;33704;43.592;-79.628;2023-11-21T03:08:23;14.0;14.0;
47934;PMS5003;33704;43.592;-79.628;2023-11-21T03:08:55;11.0;10.0;
47934;PMS5003;33704;43.592;-79.628;2023-11-21T03:09:26;10.0;10.0;
47934;PMS5003;33704;43.592;-79.628;2023-11-21T03:09:58;10.0;9.0;
47934;PMS5003;33704;43.592;-79.628;2023-11-21T03:10:30;12.0;12.0;
47934;PMS5003;33704;43.592;-79.628;2023-11-21T03:11:02;11.0;11.0;
47934;PMS5003;33704;43.592;-79.628;2023-11-21T03:11:34;10.0;10.0;
47934;PMS5003;33704;43.592;-79.628;2023-11-21T03:12:06;10.0;10.0;
47934;PMS5003;33704;43.592;-79.628;2023-11-21T03:12:38;10.0;10.0;
47934;PMS5003;33704;43.592;-79.628;2023-11-21T03:13:10;12.0;11.0;
47934;PMS5003;33704;43.592;-79.628;2023-11-21T03:13:42;10.0;9.0;
47934;PMS5003;33704;43.592;-79.628;2023-11-21T03:14:14;11.0;11.0;
47934;PMS5003;33704;43.592;-79.628;2023-11-21T03:14:47;8.0;8.0;